Time;durP1;ratioP1;P1;durP2;ratioP2;P2;SDS_P1;SDS_P2;PMS_P1;PMS_P2;Temp;Humidity;BMP_temperature;BMP_pressure;BME280_temperature;BME280_humidity;BME280_pressure;Samples;Min_cycle;Max_cycle;Signal;HPM_P1;HPM_P2
2023/03/02 00:01:32;;;;;;;38.70;31.42;;;-1.90;99.90;;;;;;4943640;28;20193;-42
2023/03/02 00:04:00;;;;;;;39.90;31.80;;;-1.90;99.90;;;;;;4943160;28;20230;-43
2023/03/02 00:06:28;;;;;;;41.13;33.13;;;-2.00;99.90;;;;;;4942882;28;20603;-43
2023/03/02 00:08:54;;;;;;;41.88;33.95;;;-2.00;99.90;;;;;;4941968;28;20193;-44
2023/03/02 00:11:20;;;;;;;40.70;33.65;;;-2.00;99.90;;;;;;4942581;28;20209;-44
2023/03/02 00:13:46;;;;;;;42.30;33.30;;;-2.00;99.90;;;;;;4941991;28;20193;-43
2023/03/02 00:16:11;;;;;;;41.10;33.63;;;-2.10;99.90;;;;;;4942993;28;20190;-42
2023/03/02 00:18:37;;;;;;;42.50;34.10;;;-2.10;99.90;;;;;;4944240;28;20840;-42
2023/03/02 00:21:03;;;;;;;40.37;33.40;;;-2.10;99.90;;;;;;4941042;28;20358;-43
2023/03/02 00:23:28;;;;;;;42.10;32.43;;;-2.10;99.90;;;;;;4942040;28;20888;-42
2023/03/02 00:25:54;;;;;;;40.27;32.63;;;-2.10;99.90;;;;;;4942552;28;20191;-44
2023/03/02 00:28:20;;;;;;;37.67;31.60;;;-2.10;99.90;;;;;;4942308;28;20189;-42
2023/03/02 00:30:45;;;;;;;38.90;31.90;;;-2.00;99.90;;;;;;4943566;28;20232;-42
2023/03/02 00:33:11;;;;;;;41.90;33.03;;;-2.00;99.90;;;;;;4941330;28;20205;-42
2023/03/02 00:35:38;;;;;;;39.13;32.73;;;-2.10;99.90;;;;;;4943127;28;20753;-42
2023/03/02 00:38:06;;;;;;;38.55;30.90;;;-2.20;99.90;;;;;;4942379;28;20186;-42
2023/03/02 00:40:32;;;;;;;38.10;30.95;;;-2.20;99.90;;;;;;4941289;29;20591;-44
2023/03/02 00:42:57;;;;;;;39.60;31.27;;;-2.30;99.90;;;;;;4942692;28;20604;-41
2023/03/02 00:45:23;;;;;;;44.30;32.27;;;-2.30;99.90;;;;;;4942137;28;20192;-46
2023/03/02 00:47:49;;;;;;;40.67;32.27;;;-2.20;99.90;;;;;;4941396;28;20197;-41
2023/03/02 00:50:14;;;;;;;41.60;32.07;;;-2.20;99.90;;;;;;4941068;28;20205;-43
2023/03/02 00:52:40;;;;;;;36.87;30.53;;;-2.30;99.90;;;;;;4941068;28;20192;-42
2023/03/02 00:55:06;;;;;;;39.07;30.63;;;-2.30;99.90;;;;;;4942451;28;20213;-46
2023/03/02 00:57:32;;;;;;;38.75;31.08;;;-2.30;99.90;;;;;;4941881;28;20704;-42
2023/03/02 00:59:58;;;;;;;40.70;31.55;;;-2.30;99.90;;;;;;4943791;28;20205;-42
2023/03/02 01:02:24;;;;;;;40.23;31.53;;;-2.30;99.90;;;;;;4941493;28;21184;-43
2023/03/02 01:04:51;;;;;;;38.87;31.93;;;-2.30;99.90;;;;;;4940438;28;20444;-45
2023/03/02 01:07:19;;;;;;;40.72;32.65;;;-2.40;99.90;;;;;;4942822;28;20869;-44
2023/03/02 01:09:47;;;;;;;43.55;33.42;;;-2.40;99.90;;;;;;4941724;28;20209;-42
2023/03/02 01:12:13;;;;;;;43.15;33.38;;;-2.40;99.90;;;;;;4941823;29;20224;-44
2023/03/02 01:14:42;;;;;;;40.65;33.45;;;-2.40;99.90;;;;;;4941142;28;20194;-42
2023/03/02 01:17:09;;;;;;;44.75;34.28;;;-2.40;99.90;;;;;;4942550;28;20220;-42
2023/03/02 01:19:35;;;;;;;41.25;34.35;;;-2.40;99.90;;;;;;4941719;28;20237;-43
2023/03/02 01:22:01;;;;;;;39.63;32.22;;;-2.50;99.90;;;;;;4942061;28;20189;-44
2023/03/02 01:24:27;;;;;;;42.75;33.17;;;-2.50;99.90;;;;;;4941642;29;21045;-43
2023/03/02 01:26:53;;;;;;;42.50;32.97;;;-2.60;99.90;;;;;;4942412;28;20196;-42
2023/03/02 01:29:18;;;;;;;40.23;32.27;;;-2.60;99.90;;;;;;4940771;28;20181;-41
2023/03/02 01:31:44;;;;;;;43.77;34.33;;;-2.60;99.90;;;;;;4942999;28;20189;-45
2023/03/02 01:34:10;;;;;;;40.70;32.10;;;-2.60;99.90;;;;;;4941479;28;20201;-44
2023/03/02 01:36:35;;;;;;;37.97;31.03;;;-2.60;99.90;;;;;;4941598;28;20186;-43
2023/03/02 01:39:01;;;;;;;37.03;30.83;;;-2.60;99.90;;;;;;4940890;28;21016;-43
2023/03/02 01:41:27;;;;;;;39.03;31.23;;;-2.60;99.90;;;;;;4941788;28;21254;-42
2023/03/02 01:43:52;;;;;;;42.30;33.47;;;-2.70;99.90;;;;;;4940436;28;20192;-42
2023/03/02 01:46:26;;;;;;;40.60;32.50;;;-2.70;99.90;;;;;;4942571;28;21396;-42
2023/03/02 01:49:01;;;;;;;40.78;33.13;;;-2.70;99.90;;;;;;4933588;28;20447;-42
2023/03/02 01:51:33;;;;;;;41.25;31.33;;;-2.70;99.90;;;;;;4941308;28;20331;-42
2023/03/02 01:54:06;;;;;;;40.90;32.95;;;-2.70;99.90;;;;;;4941408;28;20284;-42
2023/03/02 01:56:36;;;;;;;37.53;32.67;;;-2.70;99.90;;;;;;4940480;28;20197;-41
2023/03/02 01:59:07;;;;;;;38.30;30.92;;;-2.70;99.90;;;;;;4941298;28;20212;-44
2023/03/02 02:01:36;;;;;;;36.60;31.05;;;-2.70;99.90;;;;;;4940285;28;20181;-44
2023/03/02 02:04:02;;;;;;;41.40;33.08;;;-2.70;99.90;;;;;;4941204;28;20272;-42
2023/03/02 02:06:38;;;;;;;39.88;31.63;;;-2.70;99.90;;;;;;4941921;28;20636;-42
2023/03/02 02:09:08;;;;;;;43.13;33.40;;;-2.80;99.90;;;;;;4940576;28;20200;-45
2023/03/02 02:11:34;;;;;;;46.03;32.20;;;-2.80;99.90;;;;;;4940656;28;20966;-43
2023/03/02 02:14:01;;;;;;;41.03;32.03;;;-2.80;99.90;;;;;;4940680;29;20188;-41
2023/03/02 02:16:29;;;;;;;38.88;30.88;;;-2.80;99.90;;;;;;4941544;28;20193;-41
2023/03/02 02:18:55;;;;;;;43.90;31.35;;;-2.80;99.90;;;;;;4939506;28;20798;-43
2023/03/02 02:21:23;;;;;;;43.53;32.00;;;-2.80;99.90;;;;;;4942482;28;20222;-45
2023/03/02 02:24:23;;;;;;;46.00;32.17;;;-2.80;99.90;;;;;;4940670;28;20448;-42
2023/03/02 02:26:51;;;;;;;37.90;31.50;;;-2.90;99.90;;;;;;4950186;28;20209;-43
2023/03/02 02:29:37;;;;;;;37.60;29.98;;;-2.90;99.90;;;;;;4939818;28;20272;-43
2023/03/02 02:32:13;;;;;;;39.85;31.42;;;-2.90;99.90;;;;;;4940092;28;20185;-41
2023/03/02 02:35:10;;;;;;;39.05;31.02;;;-2.80;99.90;;;;;;4940925;28;20280;-44
2023/03/02 02:37:43;;;;;;;47.05;32.22;;;-2.80;99.90;;;;;;4940798;28;20622;-43
2023/03/02 02:40:17;;;;;;;37.50;30.15;;;-2.80;99.90;;;;;;4940518;28;20222;-43
2023/03/02 02:42:46;;;;;;;41.35;31.30;;;-2.80;99.90;;;;;;4939623;28;20735;-42
2023/03/02 02:45:20;;;;;;;36.75;30.33;;;-2.90;99.90;;;;;;4940343;28;20222;-43
2023/03/02 02:47:46;;;;;;;37.55;30.67;;;-2.80;99.90;;;;;;4938848;28;20204;-41
2023/03/02 02:50:30;;;;;;;38.35;31.20;;;-2.90;99.90;;;;;;4940514;28;20213;-41
2023/03/02 02:53:05;;;;;;;36.08;30.10;;;-2.90;99.90;;;;;;4940063;29;20235;-44
2023/03/02 02:55:33;;;;;;;39.30;31.77;;;-2.90;99.90;;;;;;4939486;29;20636;-43
2023/03/02 02:58:01;;;;;;;42.58;30.15;;;-3.00;99.90;;;;;;4940980;28;20235;-43
2023/03/02 03:00:27;;;;;;;38.80;30.50;;;-3.00;99.90;;;;;;4940323;28;20201;-42
2023/03/02 03:03:00;;;;;;;39.77;29.87;;;-3.00;99.90;;;;;;4940450;28;20196;-42
2023/03/02 03:05:26;;;;;;;36.67;31.25;;;-3.00;99.90;;;;;;4941093;28;20640;-42
2023/03/02 03:08:05;;;;;;;36.50;30.30;;;-3.00;99.90;;;;;;4941068;28;20200;-47
2023/03/02 03:10:35;;;;;;;35.15;30.05;;;-3.00;99.90;;;;;;4939446;28;20220;-43
2023/03/02 03:13:02;;;;;;;35.63;30.05;;;-3.00;99.90;;;;;;4939853;29;20189;-43
2023/03/02 03:15:28;;;;;;;38.80;30.40;;;-3.00;99.90;;;;;;4941349;28;20636;-43
2023/03/02 03:17:55;;;;;;;39.50;29.43;;;-3.00;99.90;;;;;;4939016;29;20236;-41
2023/03/02 03:20:22;;;;;;;35.42;29.40;;;-3.00;99.90;;;;;;4940333;28;20192;-44
2023/03/02 03:22:48;;;;;;;36.90;31.00;;;-3.10;99.90;;;;;;4940187;28;20272;-41
2023/03/02 03:25:14;;;;;;;41.40;30.47;;;-3.10;99.90;;;;;;4939715;29;20203;-43
2023/03/02 03:27:41;;;;;;;37.65;30.02;;;-3.10;99.90;;;;;;4940489;28;20603;-41
2023/03/02 03:30:09;;;;;;;40.63;29.88;;;-3.10;99.90;;;;;;4938437;29;20239;-41
2023/03/02 03:32:35;;;;;;;39.22;29.98;;;-3.10;99.90;;;;;;4939791;29;20185;-44
2023/03/02 03:35:02;;;;;;;36.83;28.93;;;-3.00;99.90;;;;;;4939566;29;20200;-43
2023/03/02 03:37:28;;;;;;;39.63;30.90;;;-3.00;99.90;;;;;;4939901;29;20181;-43
2023/03/02 03:39:54;;;;;;;45.47;30.95;;;-3.00;99.90;;;;;;4938297;29;20201;-42
2023/03/02 03:42:20;;;;;;;39.00;29.67;;;-3.00;99.90;;;;;;4939726;28;20189;-44
2023/03/02 03:44:46;;;;;;;41.53;30.55;;;-3.10;99.90;;;;;;4939328;29;20193;-44
2023/03/02 03:47:12;;;;;;;39.20;29.65;;;-3.10;99.90;;;;;;4939273;28;20192;-42
2023/03/02 03:49:37;;;;;;;39.30;30.70;;;-3.10;99.90;;;;;;4937965;28;20614;-41
2023/03/02 03:52:03;;;;;;;41.10;29.50;;;-3.10;99.90;;;;;;4948823;28;20191;-42
2023/03/02 03:54:29;;;;;;;37.00;28.37;;;-3.20;99.90;;;;;;4938579;29;20278;-43
2023/03/02 03:56:55;;;;;;;41.85;31.17;;;-3.20;99.90;;;;;;4938417;28;20226;-41
2023/03/02 03:59:23;;;;;;;40.57;31.00;;;-3.20;99.90;;;;;;4939776;28;20265;-42
2023/03/02 04:01:54;;;;;;;37.40;28.85;;;-3.20;99.90;;;;;;4938549;28;20189;-43
2023/03/02 04:04:29;;;;;;;38.50;30.73;;;-3.20;99.90;;;;;;4938354;28;20669;-44
2023/03/02 04:06:55;;;;;;;39.92;29.70;;;-3.20;99.90;;;;;;4939434;28;20209;-40
2023/03/02 04:09:22;;;;;;;41.50;29.60;;;-3.30;99.90;;;;;;4939295;28;20651;-41
2023/03/02 04:11:50;;;;;;;46.22;29.17;;;-3.30;99.90;;;;;;4937829;28;20418;-42
2023/03/02 04:14:16;;;;;;;41.78;30.00;;;-3.30;99.90;;;;;;4937987;28;20660;-42
2023/03/02 04:16:43;;;;;;;42.60;30.33;;;-3.30;99.90;;;;;;4938224;28;20231;-42
2023/03/02 04:19:09;;;;;;;39.97;29.45;;;-3.30;99.90;;;;;;4937870;28;20655;-44
2023/03/02 04:21:41;;;;;;;37.00;28.73;;;-3.30;99.90;;;;;;4937242;28;20679;-41
2023/03/02 04:24:08;;;;;;;37.00;29.05;;;-3.40;99.90;;;;;;4938292;29;20276;-43
2023/03/02 04:26:35;;;;;;;36.80;29.20;;;-3.40;99.90;;;;;;4937788;28;20567;-42
2023/03/02 04:29:01;;;;;;;36.08;28.38;;;-3.50;99.90;;;;;;4937680;28;20563;-43
2023/03/02 04:31:27;;;;;;;38.85;29.55;;;-3.50;99.90;;;;;;4939516;28;20237;-41
2023/03/02 04:33:52;;;;;;;37.33;28.03;;;-3.50;99.90;;;;;;4938189;28;20272;-41
2023/03/02 04:36:19;;;;;;;37.70;28.20;;;-3.50;99.90;;;;;;4938245;28;20239;-42
2023/03/02 04:38:45;;;;;;;37.30;29.40;;;-3.50;99.90;;;;;;4938450;28;20196;-42
2023/03/02 04:41:12;;;;;;;37.47;29.10;;;-3.60;99.90;;;;;;4940380;29;20216;-42
2023/03/02 04:43:37;;;;;;;36.67;29.58;;;-3.60;99.90;;;;;;4941088;29;20217;-40
2023/03/02 04:46:03;;;;;;;44.23;30.50;;;-3.60;99.90;;;;;;4941147;28;20387;-43
2023/03/02 04:48:29;;;;;;;39.23;29.17;;;-3.60;99.90;;;;;;4941060;28;20265;-41
2023/03/02 04:50:54;;;;;;;39.27;28.93;;;-3.60;99.90;;;;;;4939972;28;20600;-42
2023/03/02 04:53:20;;;;;;;37.07;29.83;;;-3.70;99.90;;;;;;4941996;28;20771;-42
2023/03/02 04:55:46;;;;;;;37.63;28.20;;;-3.70;99.90;;;;;;4941994;28;20539;-41
2023/03/02 04:58:13;;;;;;;35.37;27.77;;;-3.70;99.90;;;;;;4941863;28;20189;-42
2023/03/02 05:00:39;;;;;;;38.90;28.10;;;-3.70;99.90;;;;;;4939264;28;20449;-42
2023/03/02 05:03:05;;;;;;;36.65;28.65;;;-3.70;99.90;;;;;;4941124;28;20259;-41
2023/03/02 05:05:31;;;;;;;36.40;28.73;;;-3.70;99.90;;;;;;4940055;28;20201;-40
2023/03/02 05:07:58;;;;;;;41.22;29.33;;;-3.70;99.90;;;;;;4941597;28;20212;-42
2023/03/02 05:10:26;;;;;;;37.88;27.75;;;-3.70;99.90;;;;;;4939959;28;20240;-43
2023/03/02 05:13:03;;;;;;;39.38;29.00;;;-3.80;99.90;;;;;;4940477;28;20177;-40
2023/03/02 05:15:33;;;;;;;37.90;29.35;;;-3.70;99.90;;;;;;4941583;28;20326;-43
2023/03/02 05:17:59;;;;;;;41.90;27.70;;;-3.70;99.90;;;;;;4942229;28;20229;-42
2023/03/02 05:20:30;;;;;;;38.50;29.30;;;-3.80;99.90;;;;;;4940103;28;20591;-41
2023/03/02 05:22:59;;;;;;;32.95;27.77;;;-3.80;99.90;;;;;;4932176;28;20197;-42
2023/03/02 05:25:26;;;;;;;37.58;27.30;;;-3.80;99.90;;;;;;4934428;28;20189;-44
2023/03/02 05:27:51;;;;;;;41.50;28.63;;;-3.80;99.90;;;;;;4941528;28;20205;-41
2023/03/02 05:30:18;;;;;;;37.53;29.73;;;-3.80;99.90;;;;;;4941217;28;20614;-41
2023/03/02 05:32:44;;;;;;;38.88;28.85;;;-3.80;99.90;;;;;;4940554;28;20788;-41
2023/03/02 05:35:11;;;;;;;40.50;28.70;;;-3.80;99.90;;;;;;4939699;28;20578;-41
2023/03/02 05:37:40;;;;;;;43.10;29.83;;;-3.80;99.90;;;;;;4941178;28;20189;-45
2023/03/02 05:40:16;;;;;;;44.20;28.48;;;-3.80;99.90;;;;;;4941441;28;20607;-41
2023/03/02 05:42:42;;;;;;;40.92;29.48;;;-3.90;99.90;;;;;;4937224;28;20411;-41
2023/03/02 05:45:15;;;;;;;37.92;27.65;;;-3.90;99.90;;;;;;4940108;28;20200;-43
2023/03/02 05:47:41;;;;;;;37.78;27.98;;;-3.90;99.90;;;;;;4939959;28;20189;-43
2023/03/02 05:50:07;;;;;;;43.77;30.13;;;-3.90;99.90;;;;;;4939985;28;20693;-41
2023/03/02 05:52:33;;;;;;;41.80;30.38;;;-3.90;99.90;;;;;;4940739;28;20573;-42
2023/03/02 05:54:58;;;;;;;41.30;30.10;;;-3.90;99.90;;;;;;4940296;29;20323;-41
2023/03/02 05:57:24;;;;;;;45.33;28.80;;;-3.90;99.90;;;;;;4940438;29;20177;-40
2023/03/02 05:59:50;;;;;;;39.00;29.03;;;-3.90;99.90;;;;;;4940086;28;20197;-42
2023/03/02 06:02:16;;;;;;;42.13;28.98;;;-3.90;99.90;;;;;;4939218;28;20566;-42
2023/03/02 06:04:43;;;;;;;40.20;27.95;;;-3.90;99.90;;;;;;4940079;28;20592;-43
2023/03/02 06:07:12;;;;;;;42.08;29.02;;;-3.90;99.90;;;;;;4940125;28;20197;-41
2023/03/02 06:09:38;;;;;;;51.20;30.33;;;-3.90;99.90;;;;;;4939957;29;20233;-43
2023/03/02 06:12:06;;;;;;;40.45;30.02;;;-3.80;99.90;;;;;;4940120;29;20529;-42
2023/03/02 06:14:32;;;;;;;43.40;29.35;;;-3.80;99.90;;;;;;4940224;28;20189;-42
2023/03/02 06:16:57;;;;;;;42.38;30.52;;;-3.80;99.90;;;;;;4939330;28;20215;-41
2023/03/02 06:19:23;;;;;;;40.23;29.20;;;-3.80;99.90;;;;;;4939834;29;20307;-42
2023/03/02 06:21:49;;;;;;;42.50;29.50;;;-3.70;99.90;;;;;;4940230;29;20726;-41
2023/03/02 06:24:14;;;;;;;36.57;28.10;;;-3.70;99.90;;;;;;4938668;29;20218;-41
2023/03/02 06:26:40;;;;;;;38.97;27.73;;;-3.70;99.90;;;;;;4940032;28;20275;-42
2023/03/02 06:29:06;;;;;;;38.27;27.30;;;-3.60;99.90;;;;;;4940298;29;20216;-41
2023/03/02 06:31:32;;;;;;;36.88;27.70;;;-3.40;99.90;;;;;;4940493;28;20201;-43
2023/03/02 06:33:58;;;;;;;42.53;29.45;;;-3.40;99.90;;;;;;4939496;28;20240;-40
2023/03/02 06:36:24;;;;;;;38.27;30.60;;;-3.40;99.90;;;;;;4939886;28;20257;-44
2023/03/02 06:38:49;;;;;;;41.07;30.20;;;-3.40;99.90;;;;;;4939441;29;20182;-41
2023/03/02 06:41:15;;;;;;;43.27;29.20;;;-3.40;99.90;;;;;;4939716;28;20293;-41
2023/03/02 06:43:41;;;;;;;41.72;29.45;;;-3.30;99.90;;;;;;4939888;28;20195;-42
2023/03/02 06:46:07;;;;;;;41.13;30.00;;;-3.30;99.90;;;;;;4941001;28;20193;-41
2023/03/02 06:48:33;;;;;;;44.53;30.47;;;-3.30;99.90;;;;;;4939961;28;20903;-41
2023/03/02 06:50:58;;;;;;;40.07;30.17;;;-3.20;99.90;;;;;;4939591;28;20543;-40
2023/03/02 06:53:24;;;;;;;44.03;31.80;;;-3.20;99.90;;;;;;4939378;28;20452;-43
2023/03/02 06:55:53;;;;;;;45.38;32.22;;;-3.20;99.90;;;;;;4939729;29;20189;-41
2023/03/02 06:58:18;;;;;;;45.97;30.73;;;-3.20;99.90;;;;;;4935915;28;20596;-42
2023/03/02 07:00:44;;;;;;;47.93;32.90;;;-3.00;99.90;;;;;;4940303;28;20220;-41
2023/03/02 07:03:10;;;;;;;47.30;34.10;;;-2.90;99.90;;;;;;4939239;29;20196;-42
2023/03/02 07:05:36;;;;;;;45.73;33.73;;;-2.80;99.90;;;;;;4939338;29;20284;-41
2023/03/02 07:08:02;;;;;;;46.03;33.50;;;-2.80;99.90;;;;;;4939337;28;20227;-46
2023/03/02 07:10:28;;;;;;;41.20;32.00;;;-2.80;99.90;;;;;;4939530;29;20464;-40
2023/03/02 07:12:54;;;;;;;48.03;33.77;;;-2.90;99.90;;;;;;4938994;29;20429;-44
2023/03/02 07:15:20;;;;;;;43.38;31.58;;;-2.80;99.90;;;;;;4939335;29;20532;-42
2023/03/02 07:17:46;;;;;;;46.40;32.40;;;-2.80;99.90;;;;;;4938468;28;20193;-40
2023/03/02 07:20:15;;;;;;;42.03;31.40;;;-2.80;99.90;;;;;;4939652;28;20595;-41
2023/03/02 07:22:43;;;;;;;45.53;31.63;;;-2.70;99.90;;;;;;4938651;28;20878;-41
2023/03/02 07:25:10;;;;;;;44.70;33.17;;;-2.60;99.90;;;;;;4939407;28;20180;-41
2023/03/02 07:27:36;;;;;;;48.75;33.53;;;-2.60;99.90;;;;;;4938813;28;20201;-42
2023/03/02 07:30:02;;;;;;;45.28;31.73;;;-2.50;99.90;;;;;;4939030;28;20327;-42
2023/03/02 07:32:28;;;;;;;46.47;34.72;;;-2.50;99.90;;;;;;4939241;29;20197;-41
2023/03/02 07:34:54;;;;;;;48.07;33.10;;;-2.50;99.90;;;;;;4939506;29;20181;-43
2023/03/02 07:37:19;;;;;;;49.37;33.00;;;-2.40;99.90;;;;;;4939030;28;20459;-43
2023/03/02 07:39:47;;;;;;;55.30;34.77;;;-2.30;99.90;;;;;;4939347;29;20182;-43
2023/03/02 07:42:14;;;;;;;50.95;34.15;;;-2.30;99.90;;;;;;4938796;29;20242;-41
2023/03/02 07:44:39;;;;;;;47.40;33.13;;;-2.20;99.90;;;;;;4938848;29;20210;-42
2023/03/02 07:47:05;;;;;;;47.63;34.20;;;-2.10;99.90;;;;;;4939373;28;20658;-44
2023/03/02 07:49:31;;;;;;;47.60;33.80;;;-2.00;99.90;;;;;;4938386;28;20273;-42
2023/03/02 07:51:56;;;;;;;51.83;34.50;;;-1.80;99.90;;;;;;4938262;28;20205;-43
2023/03/02 07:54:25;;;;;;;49.53;35.30;;;-1.70;99.90;;;;;;4938597;28;20423;-42
2023/03/02 07:56:50;;;;;;;47.97;34.22;;;-1.50;99.90;;;;;;4938882;28;20181;-47
2023/03/02 07:59:16;;;;;;;45.10;32.07;;;-1.40;99.90;;;;;;4939665;28;20185;-45
2023/03/02 08:01:42;;;;;;;46.17;34.03;;;-1.20;99.90;;;;;;4938378;29;20639;-42
2023/03/02 08:04:08;;;;;;;46.03;34.77;;;-1.10;99.90;;;;;;4938703;29;20245;-42
2023/03/02 08:06:34;;;;;;;44.60;33.33;;;-0.90;99.90;;;;;;4938688;29;20708;-43
2023/03/02 08:09:01;;;;;;;48.27;33.77;;;-0.80;99.90;;;;;;4938473;28;20191;-41
2023/03/02 08:11:27;;;;;;;43.78;33.45;;;-0.70;99.90;;;;;;4938249;28;20223;-43
2023/03/02 08:13:52;;;;;;;42.87;33.70;;;-0.50;99.90;;;;;;4940809;28;20569;-44
2023/03/02 08:16:18;;;;;;;44.00;34.10;;;-0.20;99.90;;;;;;4941916;29;20450;-44
2023/03/02 08:18:44;;;;;;;44.73;35.27;;;0.00;99.90;;;;;;4941781;29;20242;-42
2023/03/02 08:21:15;;;;;;;48.20;36.40;;;0.30;99.90;;;;;;4941505;29;20203;-42
2023/03/02 08:23:41;;;;;;;44.03;35.80;;;0.60;99.90;;;;;;4940075;29;20369;-42
2023/03/02 08:26:06;;;;;;;48.10;36.00;;;1.00;99.90;;;;;;4941568;29;20582;-43
2023/03/02 08:28:32;;;;;;;46.10;38.00;;;1.40;99.90;;;;;;4941615;29;20459;-46
2023/03/02 08:30:59;;;;;;;43.73;36.77;;;2.10;99.90;;;;;;4941516;28;20263;-42
2023/03/02 08:33:26;;;;;;;38.78;34.55;;;2.50;99.90;;;;;;4941632;29;20436;-41
2023/03/02 08:35:55;;;;;;;39.55;34.20;;;3.10;99.90;;;;;;4941516;29;20229;-41
2023/03/02 08:38:20;;;;;;;40.85;36.00;;;3.90;99.90;;;;;;4941108;29;20679;-43
2023/03/02 08:40:46;;;;;;;36.90;33.17;;;4.70;99.90;;;;;;4941450;29;20358;-44
2023/03/02 08:43:12;;;;;;;37.13;32.50;;;5.30;99.90;;;;;;4941620;29;20563;-42
2023/03/02 08:45:37;;;;;;;37.93;33.93;;;5.40;99.90;;;;;;4942442;28;20208;-44
2023/03/02 08:48:03;;;;;;;37.87;34.07;;;5.80;98.30;;;;;;4942153;28;20193;-42
2023/03/02 08:50:28;;;;;;;38.50;34.30;;;6.30;96.40;;;;;;4941662;28;20217;-45
2023/03/02 08:52:54;;;;;;;38.83;34.73;;;7.00;93.60;;;;;;4940067;29;20194;-42
2023/03/02 08:55:20;;;;;;;39.43;35.23;;;7.30;85.20;;;;;;4941278;29;20209;-45
2023/03/02 08:57:47;;;;;;;40.37;35.10;;;7.20;78.50;;;;;;4941425;29;20188;-42
2023/03/02 09:00:15;;;;;;;39.93;35.63;;;7.70;77.50;;;;;;4941837;28;20442;-43
2023/03/02 09:02:41;;;;;;;40.97;36.70;;;8.00;73.80;;;;;;4941307;28;20438;-45
2023/03/02 09:05:07;;;;;;;40.03;35.73;;;8.40;70.90;;;;;;4940814;29;20456;-41
2023/03/02 09:07:33;;;;;;;39.97;35.97;;;8.70;67.10;;;;;;4941106;28;20428;-46
2023/03/02 09:09:58;;;;;;;40.23;35.03;;;9.10;68.10;;;;;;4941095;29;20798;-43
2023/03/02 09:12:24;;;;;;;40.80;36.80;;;9.50;62.30;;;;;;4940882;28;20733;-45
2023/03/02 09:14:49;;;;;;;39.47;35.27;;;9.00;57.90;;;;;;4940952;28;20185;-44
2023/03/02 09:17:16;;;;;;;39.03;35.13;;;9.50;59.50;;;;;;4940840;29;20543;-45
2023/03/02 09:19:41;;;;;;;42.13;37.70;;;9.90;57.40;;;;;;4940710;29;20270;-43
2023/03/02 09:22:08;;;;;;;39.90;35.80;;;10.50;54.20;;;;;;4940799;28;20426;-44
2023/03/02 09:24:34;;;;;;;39.90;35.80;;;10.80;51.30;;;;;;4940324;28;20193;-44
2023/03/02 09:27:00;;;;;;;41.17;37.07;;;11.50;50.20;;;;;;4941054;29;20911;-43
2023/03/02 09:29:26;;;;;;;40.03;36.10;;;11.80;47.10;;;;;;4941277;28;20448;-43
2023/03/02 09:31:52;;;;;;;39.03;34.93;;;11.80;46.70;;;;;;4940820;29;20511;-42
2023/03/02 09:34:17;;;;;;;41.33;37.33;;;12.10;45.40;;;;;;4940614;29;20277;-44
2023/03/02 09:36:43;;;;;;;40.77;36.80;;;11.70;43.60;;;;;;4941349;28;20602;-46
2023/03/02 09:39:11;;;;;;;40.27;36.20;;;11.80;44.80;;;;;;4940649;29;20196;-44
2023/03/02 09:42:01;;;;;;;39.17;35.43;;;12.30;44.70;;;;;;4940723;28;20255;-43
2023/03/02 09:44:54;;;;;;;41.50;37.03;;;12.80;42.10;;;;;;4940924;29;20933;-49
2023/03/02 09:47:39;;;;;;;40.10;36.10;;;13.40;41.70;;;;;;4940302;28;20440;-43
2023/03/02 09:50:21;;;;;;;39.00;35.10;;;13.30;40.70;;;;;;4940427;28;20467;-45
2023/03/02 09:53:04;;;;;;;38.87;34.97;;;13.00;40.40;;;;;;4940268;29;20524;-44
2023/03/02 09:55:34;;;;;;;38.90;35.20;;;13.40;40.30;;;;;;4940117;29;20448;-45
2023/03/02 09:58:04;;;;;;;39.50;35.60;;;13.50;38.10;;;;;;4940536;28;21033;-45
2023/03/02 10:00:48;;;;;;;40.00;36.30;;;13.80;38.00;;;;;;4941346;28;21025;-48
2023/03/02 10:03:21;;;;;;;39.70;35.80;;;13.70;36.90;;;;;;4940220;29;20439;-46
2023/03/02 10:05:54;;;;;;;39.07;35.33;;;13.80;38.30;;;;;;4940372;29;20504;-43
2023/03/02 10:08:25;;;;;;;37.30;33.90;;;14.40;37.40;;;;;;4940187;29;20504;-43
2023/03/02 10:11:25;;;;;;;38.20;34.60;;;14.50;36.80;;;;;;4939965;29;20837;-46
2023/03/02 10:14:11;;;;;;;38.07;34.57;;;14.60;35.20;;;;;;4940392;29;20421;-45
2023/03/02 10:16:48;;;;;;;38.77;35.03;;;14.80;35.70;;;;;;4940019;28;20439;-44
2023/03/02 10:19:53;;;;;;;39.40;35.70;;;15.20;34.80;;;;;;4940809;28;20472;-43
2023/03/02 10:22:23;;;;;;;38.23;34.47;;;15.10;34.80;;;;;;4998026;28;21088;-46
2023/03/02 10:25:27;;;;;;;37.67;34.20;;;15.50;34.20;;;;;;4948515;28;20437;-46
2023/03/02 10:28:01;;;;;;;38.03;34.27;;;15.80;32.30;;;;;;4938458;28;20451;-43
2023/03/02 10:30:34;;;;;;;38.70;35.07;;;15.40;30.70;;;;;;4939770;29;20460;-47
2023/03/02 10:33:07;;;;;;;37.47;33.47;;;15.70;32.60;;;;;;4939650;29;20416;-46
2023/03/02 10:35:35;;;;;;;39.00;35.40;;;16.00;32.70;;;;;;4939457;29;20571;-44
2023/03/02 10:38:14;;;;;;;36.83;33.53;;;16.10;32.10;;;;;;4938701;29;20542;-46
2023/03/02 10:40:45;;;;;;;38.63;34.80;;;16.30;31.90;;;;;;4939635;29;20417;-42
2023/03/02 10:43:32;;;;;;;38.67;35.13;;;16.50;31.80;;;;;;4938260;28;20510;-44
2023/03/02 10:46:00;;;;;;;41.07;37.10;;;17.20;31.20;;;;;;4939301;28;20552;-41
2023/03/02 10:48:26;;;;;;;36.93;33.27;;;17.50;28.90;;;;;;4940020;29;20564;-47
2023/03/02 10:50:57;;;;;;;36.77;33.47;;;17.30;28.60;;;;;;4939465;28;20461;-44
2023/03/02 10:53:23;;;;;;;37.00;33.73;;;17.40;29.40;;;;;;4938710;28;20417;-47
2023/03/02 10:55:51;;;;;;;36.23;32.97;;;18.10;28.80;;;;;;4939875;28;20889;-47
2023/03/02 10:58:21;;;;;;;35.53;32.30;;;18.80;27.30;;;;;;4939347;29;20221;-44
2023/03/02 11:01:01;;;;;;;35.50;32.40;;;19.10;25.70;;;;;;4940107;28;20432;-45
2023/03/02 11:03:28;;;;;;;35.10;31.90;;;18.90;24.60;;;;;;4939717;28;20417;-45
2023/03/02 11:05:55;;;;;;;36.07;32.97;;;17.80;24.50;;;;;;4939311;29;20440;-43
2023/03/02 11:08:26;;;;;;;33.30;30.37;;;18.20;25.10;;;;;;4939684;28;20490;-42
2023/03/02 11:10:59;;;;;;;34.10;31.00;;;18.30;25.30;;;;;;4938861;29;20793;-41
2023/03/02 11:13:30;;;;;;;31.07;28.40;;;18.70;24.40;;;;;;4938955;28;20704;-48
2023/03/02 11:16:03;;;;;;;32.50;29.70;;;19.50;24.00;;;;;;4939107;28;20417;-44
2023/03/02 11:18:31;;;;;;;30.90;28.20;;;20.10;22.40;;;;;;4938766;29;20512;-45
2023/03/02 11:21:10;;;;;;;30.50;27.70;;;19.60;21.60;;;;;;4938978;29;20412;-47
2023/03/02 11:23:57;;;;;;;27.23;24.83;;;19.20;22.00;;;;;;4939504;29;20413;-43
2023/03/02 11:26:31;;;;;;;26.40;24.10;;;19.50;21.90;;;;;;4939089;29;20420;-42
2023/03/02 11:29:21;;;;;;;25.83;23.73;;;19.80;20.40;;;;;;4938813;29;20744;-46
2023/03/02 11:31:49;;;;;;;26.83;24.47;;;20.70;20.10;;;;;;4939073;29;20818;-46
2023/03/02 11:34:31;;;;;;;25.13;23.03;;;20.50;19.40;;;;;;4938871;29;20841;-44
2023/03/02 11:37:08;;;;;;;26.30;24.00;;;20.10;18.60;;;;;;4938974;29;20440;-47
2023/03/02 11:40:07;;;;;;;26.57;24.40;;;20.30;18.90;;;;;;4939262;29;21249;-46
2023/03/02 11:42:36;;;;;;;23.47;21.77;;;20.50;19.20;;;;;;4939503;28;20871;-45
2023/03/02 11:45:14;;;;;;;24.00;22.03;;;20.30;18.70;;;;;;4938736;29;21160;-43
2023/03/02 11:48:13;;;;;;;21.13;19.63;;;20.00;18.60;;;;;;4939253;28;20417;-46
2023/03/02 11:50:52;;;;;;;21.93;20.33;;;19.80;18.30;;;;;;4942249;29;20487;-44
2023/03/02 11:53:19;;;;;;;20.80;19.13;;;20.20;15.90;;;;;;4942331;29;20834;-47
2023/03/02 11:55:48;;;;;;;21.73;20.23;;;20.50;16.80;;;;;;4942192;28;21362;-45
2023/03/02 11:58:26;;;;;;;21.53;19.93;;;20.00;16.50;;;;;;4942164;28;20432;-45
2023/03/02 12:00:53;;;;;;;21.47;19.87;;;19.60;16.20;;;;;;4942284;28;20467;-46
2023/03/02 12:03:31;;;;;;;22.57;20.90;;;20.50;16.70;;;;;;4942231;28;20428;-43
2023/03/02 12:06:15;;;;;;;22.73;20.83;;;20.80;16.90;;;;;;4942315;29;20424;-43
2023/03/02 12:08:43;;;;;;;22.53;20.70;;;20.90;16.50;;;;;;4941929;29;20837;-44
2023/03/02 12:11:15;;;;;;;22.43;20.73;;;20.60;15.90;;;;;;4942144;28;20935;-45
2023/03/02 12:13:42;;;;;;;24.40;22.50;;;20.70;15.00;;;;;;4941958;28;20448;-44
2023/03/02 12:16:17;;;;;;;23.73;21.93;;;20.90;16.60;;;;;;4941466;29;20445;-47
2023/03/02 12:18:48;;;;;;;23.53;21.73;;;21.20;17.00;;;;;;4942049;28;20827;-45
2023/03/02 12:21:21;;;;;;;24.00;22.20;;;21.00;17.10;;;;;;4941963;28;20496;-45
2023/03/02 12:23:49;;;;;;;25.00;22.90;;;21.10;16.00;;;;;;4941565;29;21134;-45
2023/03/02 12:26:18;;;;;;;24.70;22.80;;;21.00;15.30;;;;;;4941578;29;20528;-44
2023/03/02 12:28:58;;;;;;;24.27;22.47;;;20.70;16.30;;;;;;4942017;28;20424;-46
2023/03/02 12:31:24;;;;;;;22.63;20.93;;;20.80;16.20;;;;;;4941782;29;20413;-45
2023/03/02 12:33:51;;;;;;;23.67;21.87;;;21.20;16.00;;;;;;4941722;28;20475;-43
2023/03/02 12:36:33;;;;;;;24.40;22.40;;;21.00;16.40;;;;;;4941308;28;20651;-43
2023/03/02 12:39:11;;;;;;;24.20;22.40;;;20.80;15.10;;;;;;4941852;29;20788;-43